AirNav   Everest Fuels
 
 1337 users online  

1IN4 Robinson Airpark
Elizabeth, Indiana, USA

GOING TO ELIZABETH?


FAA INFORMATION EFFECTIVE 22 APRIL 2021

Location

FAA Identifier: 1IN4
Lat/Long: 38-08-35.0000N 085-59-16.0000W
38-08.583333N 085-59.266667W
38.1430556,-85.9877778
(estimated)
Elevation: 775 ft. / 236 m (estimated)
Variation: 03W (1995)
From city: 1 mile NW of ELIZABETH, IN
Time zone: UTC -4 (UTC -5 during Standard Time)
Zip code: 47117

Airport Operations

Airport use: Private use. Permission required prior to landing
Activation date: 02/1998
Control tower: no
ARTCC: INDIANAPOLIS CENTER
FSS: TERRE HAUTE FLIGHT SERVICE STATION
Attendance: CONTINUOUS
Segmented circle: no

Airport Communications

WX ASOS at SDF (12 nm E): PHONE 502-367-1492
WX ASOS at LOU (16 nm E): PHONE 502-473-0693
WX AWOS-3 at JVY (18 nm NE): 118.575 (812-246-1278)

Nearby radio navigation aids

VOR radial/distance  VOR name  Freq  Var
FTKr358/14.2FORT KNOX VOR/DME109.6001W
MYSr040/(19.2)MYSTIC VOR108.2001W
IIUr276/19.5LOUISVILLE VORTAC114.8001E
EWOr333/34.0NEW HOPE VOR/DME110.8001E

 
NDB name  Hdg/Dist  Freq  Var  ID
GODMAN000/11.139603WGOI --. --- ..

Airport Services

Runway Information

Runway 9/27

Dimensions: 2000 x 30 ft. / 610 x 9 m
Surface: turf, in good condition
RUNWAY 9  RUNWAY 27
Traffic pattern: leftleft
Obstructions: none30 ft. trees, 500 ft. from runway

Airport Ownership and Management from official FAA records

Ownership: Privately-owned
Owner: JAMES E. ROBINSON
7300 PINE SHORE DRIVE
ELIZABETH, IN 47117
Phone 812-969-2859
Manager: JAMES E. ROBINSON
7300 PINE SHORE DRIVE
ELIZABETH, IN 47117
Phone 812-969-2859

Additional Remarks

FOR CD CTC LOUISVILLE APCH AT 502-375-7499

Instrument Procedures

There are no published instrument procedures at 1IN4.

Some nearby airports with instrument procedures:

KSDF - Louisville Muhammad Ali International Airport (12 nm E)
KFTK - Godman Army Airfield (14 nm S)
KLOU - Bowman Field Airport (16 nm E)
KJVY - Clark Regional Airport (18 nm NE)
KEKX - Addington Field Airport (28 nm S)
 
Loc | Ops | Rwys | IFR | FBO | Links
Com | Nav | Svcs | Stats | Notes
Area around 1IN4 (Robinson Airpark)
 
Road maps at: MapQuest Bing Google
 
Aerial photo
No photo
 
Sectional chart

 
Airport distance calculator
Flying to Robinson Airpark? Find the distance to fly.

From to 1IN4

Sunrise and sunset
Times for 17-May-2021
 Local
(UTC-4)
 Zulu
(UTC)
Morning civil twilight06:0310:03
Sunrise06:3310:33
Sunset20:4800:48
Evening civil twilight21:1801:18

Current date and time
Zulu (UTC)  17-May-2021 22:26:39
Local (UTC-4)  17-May-2021 18:26:39
 
METAR
KSDF 
12nm E 
172156Z 15007KT 10SM FEW055 SCT120 OVC160 24/13 A3015 RMK AO2 SLP204 T02440128
KFTK 
16nm S 
172156Z AUTO 10006KT 10SM FEW047 BKN110 OVC150 23/14 A3015 RMK AO2 SLP209 T02310141
KLOU 
16nm E 
172153Z 15008KT 10SM CLR 24/12 A3014 RMK AO2 SLP204 T02440122
KJVY 
18nm NE 
172215Z AUTO 17004KT 10SM CLR 24/14 A3015 RMK AO2 T02410143 TSNO
TAF
KSDF 
12nm E 
171720Z 1718/1824 13007KT P6SM BKN090
KFTK 
16nm S 
171900Z 1719/1901 20010KT 9999 SCT030 BKN070 OVC150 QNH3012INS BECMG 1801/1802 19008KT 9999 BKN050 OVC070 QNH3000INS BECMG 1805/1806 18006KT 9999 VCSH BKN040 OVC050 QNH2995INS BECMG 1815/1816 19012G18KT 9000 -SHRA BKN030 OVC050 QNH2990INS TX25/1720Z TN17/1811Z LAST NO AMDS AFT 1803 NEXT 1811
NOTAMs
Click for the latest NOTAMs
NOTAMs are issued by the DoD/FAA and will open in a separate window not controlled by AirNav.

 

 
 

Would you like to see your business listed on this page?

 If your business provides an interesting product or service to pilots, flight crews, aircraft, or users of the Robinson Airpark, you should consider listing it here.  To start the listing process, click on the button below
 
Add a business
 

Other Pages about Robinson Airpark

Update a link
 
Copyright © AirNav, LLC. All rights reserved. Privacy Policy  Contact